Time;durP1;ratioP1;P1;durP2;ratioP2;P2;SDS_P1;SDS_P2;PMS_P1;PMS_P2;Temp;Humidity;BMP_temperature;BMP_pressure;BME280_temperature;BME280_humidity;BME280_pressure;Samples;Min_cycle;Max_cycle;Signal;HPM_P1;HPM_P2
2023/09/28 00:02:47;;;;;;;0.77;0.77;;;;;;;15.63;78.00;100126.31;5063970;28;20115;-64
2023/09/28 00:05:15;;;;;;;1.13;1.02;;;;;;;15.61;78.28;100133.22;5076173;28;20049;-64
2023/09/28 00:07:45;;;;;;;0.52;0.52;;;;;;;15.62;78.44;100129.75;5076430;28;20511;-64
2023/09/28 00:10:16;;;;;;;1.02;0.95;;;;;;;15.64;78.39;100125.47;5076127;28;20052;-64
2023/09/28 00:12:47;;;;;;;1.30;1.20;;;;;;;15.74;78.61;100119.28;5076143;28;20484;-64
2023/09/28 00:15:18;;;;;;;0.98;0.88;;;;;;;15.68;78.45;100114.25;5076007;28;20045;-64
2023/09/28 00:17:47;;;;;;;0.85;0.63;;;;;;;15.69;78.36;100126.22;5076014;28;20049;-64
2023/09/28 00:20:18;;;;;;;0.80;0.70;;;;;;;15.65;78.70;100124.56;5076161;28;20041;-63
2023/09/28 00:22:48;;;;;;;3.20;1.95;;;;;;;15.66;78.50;100110.84;5076467;28;20501;-64
2023/09/28 00:25:19;;;;;;;12.88;1.95;;;;;;;15.68;78.26;100114.25;5076116;28;20047;-63
2023/09/28 00:27:50;;;;;;;1.90;1.65;;;;;;;15.77;78.24;100113.25;5075807;28;20060;-63
2023/09/28 00:30:22;;;;;;;1.20;1.10;;;;;;;15.85;78.01;100121.72;5076041;28;20407;-64
2023/09/28 00:32:52;;;;;;;1.00;0.90;;;;;;;15.83;77.90;100124.31;5075764;28;20052;-63
2023/09/28 00:35:22;;;;;;;1.10;0.70;;;;;;;15.72;78.22;100115.88;5075961;28;20145;-64
2023/09/28 00:37:50;;;;;;;3.58;1.35;;;;;;;15.62;78.14;100119.47;5076162;28;20048;-64
2023/09/28 00:40:21;;;;;;;1.42;1.33;;;;;;;15.62;78.14;100114.31;5074451;28;20391;-64
2023/09/28 00:42:50;;;;;;;0.80;0.80;;;;;;;15.65;78.41;100124.56;5075471;28;20044;-65
2023/09/28 00:45:23;;;;;;;2.42;1.52;;;;;;;15.72;77.93;100120.19;5054277;28;20553;-64
2023/09/28 00:47:56;;;;;;;0.85;0.77;;;;;;;15.75;77.68;100115.84;5055399;28;20045;-63
2023/09/28 00:50:26;;;;;;;0.82;0.75;;;;;;;15.75;77.37;100120.16;5055379;28;20127;-64
2023/09/28 00:52:59;;;;;;;1.95;1.58;;;;;;;15.65;77.63;100109.13;5056050;28;20040;-65
2023/09/28 00:55:30;;;;;;;1.30;0.90;;;;;;;15.60;77.45;100121.22;5053999;28;20526;-65
2023/09/28 00:58:01;;;;;;;2.28;1.00;;;;;;;15.58;77.50;100117.81;5054463;28;20393;-64
2023/09/28 01:00:33;;;;;;;1.55;1.20;;;;;;;15.53;77.77;100118.75;5055208;28;20091;-64
2023/09/28 01:03:05;;;;;;;0.70;0.70;;;;;;;15.51;77.69;100121.34;5055392;28;20052;-63
2023/09/28 01:05:40;;;;;;;1.02;0.90;;;;;;;15.47;78.18;100117.13;5053986;28;20136;-65
2023/09/28 01:08:11;;;;;;;0.80;0.80;;;;;;;15.46;77.98;100122.28;5055014;28;20044;-64
2023/09/28 01:10:41;;;;;;;6.22;1.65;;;;;;;15.56;77.97;100114.41;5054066;28;20397;-64
2023/09/28 01:13:12;;;;;;;1.10;1.00;;;;;;;15.54;77.83;100116.16;5054931;28;20080;-64
2023/09/28 01:15:46;;;;;;;1.92;1.33;;;;;;;15.51;77.98;100108.47;5054264;28;20045;-63
2023/09/28 01:18:17;;;;;;;1.23;1.02;;;;;;;15.50;78.15;100111.91;5053599;28;20045;-64
2023/09/28 01:20:47;;;;;;;1.50;1.35;;;;;;;15.45;78.09;100116.31;5053555;28;20091;-63
2023/09/28 01:23:18;;;;;;;1.35;1.17;;;;;;;15.46;78.49;100112.84;5054854;28;20071;-64
2023/09/28 01:25:47;;;;;;;0.68;0.68;;;;;;;15.43;78.60;100115.41;5053628;28;20052;-64
2023/09/28 01:28:18;;;;;;;4.40;1.15;;;;;;;15.46;78.26;100115.41;5054651;28;20117;-64
2023/09/28 01:30:46;;;;;;;4.22;1.15;;;;;;;15.49;78.55;100111.94;5054229;28;20053;-64
2023/09/28 01:33:15;;;;;;;18.17;1.70;;;;;;;15.52;78.68;100106.75;5054485;28;20036;-64
2023/09/28 01:35:43;;;;;;;0.70;0.70;;;;;;;15.51;78.28;100108.47;5054457;28;20127;-64
2023/09/28 01:38:30;;;;;;;0.50;0.50;;;;;;;15.48;78.64;100110.25;5054729;28;20049;-64
2023/09/28 01:40:58;;;;;;;1.77;1.50;;;;;;;15.41;78.54;100105.16;5054397;28;20045;-64
2023/09/28 01:43:27;;;;;;;2.05;1.50;;;;;;;15.41;78.78;100104.28;5059409;28;20057;-64
2023/09/28 01:45:55;;;;;;;2.10;1.38;;;;;;;15.33;78.46;100101.00;5074478;28;20431;-64
2023/09/28 01:48:24;;;;;;;1.38;1.20;;;;;;;15.32;78.67;100105.28;5074130;28;20040;-64
2023/09/28 01:50:53;;;;;;;;;;;;;;;15.28;78.56;100097.63;5074795;28;20041;-63
2023/09/28 01:53:23;;;;;;;1.25;1.15;;;;;;;15.22;78.35;100102.84;5073225;28;20003;-64
2023/09/28 01:55:52;;;;;;;;;;;;;;;15.23;78.55;100099.41;5074581;28;20044;-64
2023/09/28 01:58:20;;;;;;;1.23;1.13;;;;;;;15.24;79.09;100101.09;5073999;28;19920;-63
2023/09/28 02:00:49;;;;;;;1.45;1.35;;;;;;;15.30;78.82;100101.03;5073866;28;20047;-63
2023/09/28 02:03:16;;;;;;;1.23;0.93;;;;;;;15.27;78.41;100101.06;5073956;28;20044;-64
2023/09/28 02:05:45;;;;;;;0.98;0.95;;;;;;;15.25;78.75;100101.09;5073890;28;20116;-64
2023/09/28 02:08:15;;;;;;;1.23;1.13;;;;;;;15.26;78.51;100096.81;5072991;28;20060;-64
2023/09/28 02:10:45;;;;;;;1.40;1.13;;;;;;;15.19;78.80;100092.56;5072636;28;20100;-64
2023/09/28 02:13:14;;;;;;;1.40;1.30;;;;;;;15.23;78.41;100094.25;5056061;28;20045;-63
2023/09/28 02:15:43;;;;;;;2.28;1.58;;;;;;;15.29;78.84;100089.03;5073826;28;20046;-63
2023/09/28 02:18:11;;;;;;;3.60;1.25;;;;;;;15.32;78.18;100089.00;5073989;28;20464;-64
2023/09/28 02:20:41;;;;;;;5.57;2.03;;;;;;;15.28;78.08;100087.34;5073571;28;20515;-63
2023/09/28 02:23:09;;;;;;;0.68;0.65;;;;;;;15.23;78.21;100089.97;5073821;28;20094;-64
2023/09/28 02:25:38;;;;;;;0.43;0.43;;;;;;;15.15;78.15;100093.50;5073871;28;20072;-63
2023/09/28 02:28:08;;;;;;;2.25;1.65;;;;;;;15.11;78.61;100094.41;5073906;28;20048;-63
2023/09/28 02:30:37;;;;;;;6.25;1.27;;;;;;;15.04;78.48;100093.66;5073813;28;20049;-63
2023/09/28 02:33:06;;;;;;;1.13;0.87;;;;;;;15.05;78.75;100094.47;5072351;28;20040;-64
2023/09/28 02:35:35;;;;;;;;;;;;;;;15.03;78.89;100101.34;5074241;28;20273;-65
2023/09/28 02:38:03;;;;;;;2.58;1.70;;;;;;;15.00;78.37;100093.69;5072432;28;19920;-65
2023/09/28 02:40:33;;;;;;;1.10;1.08;;;;;;;15.00;79.04;100096.25;5072736;28;20059;-64
2023/09/28 02:43:03;;;;;;;1.50;1.23;;;;;;;14.99;78.48;100098.00;5073265;28;20076;-64
2023/09/28 02:45:33;;;;;;;0.52;0.52;;;;;;;14.98;78.64;100092.84;5073467;28;20079;-64
2023/09/28 02:48:01;;;;;;;1.20;1.10;;;;;;;15.01;79.15;100093.69;5072493;28;20056;-63
2023/09/28 02:50:31;;;;;;;2.22;1.40;;;;;;;15.03;78.55;100096.22;5072319;28;20041;-64
2023/09/28 02:52:59;;;;;;;0.70;0.70;;;;;;;15.11;78.58;100094.41;5073714;28;20570;-63
2023/09/28 02:55:28;;;;;;;1.83;1.58;;;;;;;15.16;78.38;100092.66;5073591;28;20044;-63
2023/09/28 02:57:56;;;;;;;1.23;1.13;;;;;;;15.09;78.31;100091.03;5073574;28;20036;-63
2023/09/28 03:00:27;;;;;;;2.58;1.63;;;;;;;15.08;78.37;100097.03;5073223;28;20300;-63
2023/09/28 03:02:57;;;;;;;0.68;0.68;;;;;;;15.05;78.40;100099.63;5073309;28;20045;-63
2023/09/28 03:05:27;;;;;;;0.80;0.77;;;;;;;15.00;78.44;100099.69;5073291;28;20060;-63
2023/09/28 03:07:55;;;;;;;1.02;0.93;;;;;;;14.99;78.43;100095.41;5073177;28;20052;-63
2023/09/28 03:10:25;;;;;;;0.65;0.65;;;;;;;15.00;78.78;100101.38;5073502;28;20120;-63
2023/09/28 03:12:56;;;;;;;1.45;1.35;;;;;;;15.00;78.41;100091.09;5072332;28;20058;-64
2023/09/28 03:15:25;;;;;;;1.75;1.65;;;;;;;15.04;78.89;100092.78;5073222;28;20037;-63
2023/09/28 03:17:55;;;;;;;1.13;1.02;;;;;;;15.03;78.54;100093.66;5072191;28;20037;-63
2023/09/28 03:20:27;;;;;;;1.10;1.00;;;;;;;15.00;78.99;100093.69;5075909;28;20045;-63
2023/09/28 03:22:55;;;;;;;1.95;1.33;;;;;;;15.04;78.71;100090.22;5077268;28;20047;-63
2023/09/28 03:25:24;;;;;;;1.50;1.40;;;;;;;15.06;79.02;100091.03;5076905;28;20045;-63
2023/09/28 03:27:54;;;;;;;1.17;1.10;;;;;;;15.11;78.56;100089.28;5076894;28;20136;-63
2023/09/28 03:30:25;;;;;;;1.00;0.95;;;;;;;15.12;78.71;100096.09;5075962;28;20403;-63
2023/09/28 03:32:54;;;;;;;0.93;0.90;;;;;;;15.11;78.89;100089.28;5076739;28;20135;-63
2023/09/28 03:35:26;;;;;;;4.22;2.88;;;;;;;15.11;78.54;100097.84;5076764;28;20055;-64
2023/09/28 03:37:56;;;;;;;2.03;1.83;;;;;;;15.15;78.30;100090.94;5076736;28;20052;-64
2023/09/28 03:40:33;;;;;;;12.73;2.17;;;;;;;15.17;78.38;100099.47;5076822;28;20075;-64
2023/09/28 03:43:03;;;;;;;3.40;1.27;;;;;;;15.19;78.48;100102.88;5076456;28;20087;-64
2023/09/28 03:45:33;;;;;;;2.22;1.42;;;;;;;15.19;78.39;100102.88;5076585;28;20059;-64
2023/09/28 03:48:03;;;;;;;1.35;1.23;;;;;;;15.11;78.45;100100.41;5076827;28;20127;-64
2023/09/28 03:50:33;;;;;;;0.93;0.80;;;;;;;15.14;78.34;100099.53;5076466;28;20044;-63
2023/09/28 03:53:02;;;;;;;1.27;1.17;;;;;;;15.14;77.98;100091.81;5076521;28;20055;-64
2023/09/28 03:55:31;;;;;;;1.05;0.95;;;;;;;15.16;78.36;100093.50;5076271;28;20109;-64
2023/09/28 03:58:00;;;;;;;0.77;0.77;;;;;;;15.18;77.70;100096.03;5076356;28;20094;-64
2023/09/28 04:00:30;;;;;;;2.88;1.63;;;;;;;15.17;78.08;100094.31;5076219;28;20492;-64
2023/09/28 04:02:59;;;;;;;1.13;0.98;;;;;;;15.15;77.95;100090.94;5076225;28;20087;-63
2023/09/28 04:05:28;;;;;;;1.10;1.05;;;;;;;15.15;77.86;100090.94;5076085;28;20048;-64
2023/09/28 04:07:58;;;;;;;2.75;2.15;;;;;;;15.09;78.14;100096.16;5076203;28;20052;-64
2023/09/28 04:10:28;;;;;;;2.40;1.40;;;;;;;15.05;78.02;100089.34;5076453;28;20049;-63
2023/09/28 04:12:57;;;;;;;1.92;1.65;;;;;;;15.04;78.43;100090.22;5076152;28;20036;-63
2023/09/28 04:15:26;;;;;;;2.10;1.20;;;;;;;15.08;78.50;100089.31;5076177;28;20484;-64
2023/09/28 04:17:55;;;;;;;6.28;1.77;;;;;;;15.06;78.45;100091.03;5075985;28;20294;-63
2023/09/28 04:20:24;;;;;;;1.13;1.02;;;;;;;15.02;78.33;100092.78;5075925;28;20040;-64
2023/09/28 04:22:53;;;;;;;1.07;0.67;;;;;;;14.93;78.74;100094.63;5075880;28;20066;-64
2023/09/28 04:25:26;;;;;;;1.90;1.70;;;;;;;14.97;78.50;100106.59;5076058;28;20777;-63
2023/09/28 04:27:55;;;;;;;1.30;0.98;;;;;;;15.00;78.36;100097.09;5076316;28;20063;-64
2023/09/28 04:30:24;;;;;;;0.90;0.82;;;;;;;15.03;78.25;100106.50;5075328;28;20036;-63
2023/09/28 04:32:54;;;;;;;1.50;1.33;;;;;;;15.00;78.15;100102.25;5075717;28;20075;-63
2023/09/28 04:35:23;;;;;;;;;;;;;;;15.01;78.43;100108.25;5076291;28;20500;-63
2023/09/28 04:37:52;;;;;;;1.42;1.33;;;;;;;15.02;78.32;100103.06;5075578;28;19927;-63
2023/09/28 04:40:24;;;;;;;0.90;0.90;;;;;;;15.03;78.10;100096.22;5075534;28;20044;-63
2023/09/28 04:42:55;;;;;;;1.67;1.25;;;;;;;15.02;78.23;100104.81;5076109;28;20555;-64
2023/09/28 04:45:25;;;;;;;1.20;1.10;;;;;;;15.03;78.43;100101.34;5075869;28;20420;-63
2023/09/28 04:47:54;;;;;;;3.13;1.83;;;;;;;14.95;78.47;100103.19;5075318;28;20041;-64
2023/09/28 04:50:24;;;;;;;0.82;0.82;;;;;;;14.89;78.03;100108.38;5075433;28;20139;-63
2023/09/28 04:52:55;;;;;;;2.00;1.23;;;;;;;14.85;78.03;100105.00;5075489;28;20049;-63
2023/09/28 04:55:24;;;;;;;2.05;1.50;;;;;;;14.84;78.54;100099.88;5075568;28;20113;-64
2023/09/28 04:57:53;;;;;;;1.48;1.33;;;;;;;14.86;78.51;100103.28;5075140;28;20489;-63
2023/09/28 05:00:23;;;;;;;1.80;1.33;;;;;;;14.89;78.46;100103.25;5075431;28;20401;-63
2023/09/28 05:02:52;;;;;;;2.38;2.17;;;;;;;14.90;78.65;100094.69;5075169;28;20052;-64
2023/09/28 05:05:21;;;;;;;2.73;1.80;;;;;;;14.91;78.32;100093.78;5075150;28;20036;-64
2023/09/28 05:07:50;;;;;;;1.50;1.17;;;;;;;14.94;78.49;100106.63;5075505;28;20431;-64
2023/09/28 05:10:19;;;;;;;2.53;1.70;;;;;;;14.97;78.49;100101.44;5075605;28;20331;-64
2023/09/28 05:12:48;;;;;;;1.20;1.10;;;;;;;14.98;78.57;100098.00;5075171;28;20063;-64
2023/09/28 05:15:17;;;;;;;1.60;1.50;;;;;;;15.03;78.19;100098.78;5075131;28;20442;-64
2023/09/28 05:17:48;;;;;;;3.75;1.73;;;;;;;15.05;78.34;100099.63;5074748;28;20037;-63
2023/09/28 05:20:17;;;;;;;1.58;0.95;;;;;;;15.05;78.55;100100.47;5074867;28;20044;-63
2023/09/28 05:22:46;;;;;;;1.73;1.23;;;;;;;15.06;78.18;100106.47;5074615;28;20132;-64
2023/09/28 05:25:15;;;;;;;0.55;0.55;;;;;;;15.08;78.07;100099.59;5074759;28;20108;-64
2023/09/28 05:27:44;;;;;;;2.23;1.53;;;;;;;15.15;78.02;100101.22;5074583;28;20515;-63
2023/09/28 05:30:14;;;;;;;1.03;0.83;;;;;;;15.15;78.21;100108.94;5074571;28;20127;-64
2023/09/28 05:32:43;;;;;;;0.73;0.73;;;;;;;15.14;77.77;100110.63;5075337;28;20045;-64
2023/09/28 05:35:13;;;;;;;0.77;0.77;;;;;;;15.17;77.82;100108.03;5074502;28;20048;-63
2023/09/28 05:37:42;;;;;;;2.40;1.17;;;;;;;15.23;77.96;100112.25;5074369;28;20117;-64
2023/09/28 05:40:12;;;;;;;2.53;1.57;;;;;;;15.33;77.70;100109.53;5074426;28;20568;-63
2023/09/28 05:42:41;;;;;;;;;;;;;;;15.41;77.91;100120.59;5074781;28;20106;-64
2023/09/28 05:45:13;;;;;;;1.23;1.13;;;;;;;15.47;77.96;100113.69;5074349;28;19927;-64
2023/09/28 05:47:42;;;;;;;2.40;1.98;;;;;;;15.58;77.95;100117.81;5074560;28;20561;-63
2023/09/28 05:50:12;;;;;;;3.20;2.00;;;;;;;15.70;77.97;100114.22;5074280;28;20036;-64
2023/09/28 05:52:42;;;;;;;5.32;1.13;;;;;;;15.79;77.63;100120.06;5074166;28;20052;-64
2023/09/28 05:55:12;;;;;;;4.18;2.28;;;;;;;15.83;77.40;100118.31;5074346;28;20052;-64
2023/09/28 05:57:41;;;;;;;1.20;1.10;;;;;;;15.89;77.51;100123.34;5074097;28;20131;-64
2023/09/28 06:00:10;;;;;;;0.68;0.68;;;;;;;15.99;77.15;100120.63;5074558;28;20492;-64
2023/09/28 06:02:39;;;;;;;1.08;0.80;;;;;;;16.12;77.21;100121.31;5074161;28;20045;-64
2023/09/28 06:05:10;;;;;;;0.70;0.70;;;;;;;16.19;76.92;100127.19;5074175;28;20070;-64
2023/09/28 06:07:39;;;;;;;0.90;0.88;;;;;;;16.29;76.57;100126.16;5074206;28;20049;-64
2023/09/28 06:10:10;;;;;;;0.82;0.82;;;;;;;16.39;76.28;100130.25;5073894;28;20089;-64
2023/09/28 06:12:39;;;;;;;1.13;1.02;;;;;;;16.46;76.22;100126.75;5074107;28;20041;-64
2023/09/28 06:15:09;;;;;;;0.93;0.93;;;;;;;16.52;76.09;100130.09;5073685;28;20044;-64
2023/09/28 06:17:37;;;;;;;;;;;;;;;16.55;75.46;100130.03;5074124;28;20093;-64
2023/09/28 06:20:08;;;;;;;1.50;1.40;;;;;;;16.64;75.11;100126.44;5074052;28;19920;-64
2023/09/28 06:22:37;;;;;;;13.77;1.65;;;;;;;16.71;74.86;100128.00;5073393;28;20123;-64
2023/09/28 06:25:08;;;;;;;2.47;0.70;;;;;;;16.79;74.59;100128.72;5074199;28;20408;-64
2023/09/28 06:27:39;;;;;;;1.38;1.20;;;;;;;16.91;74.85;100135.38;5073950;28;20044;-64
2023/09/28 06:30:09;;;;;;;0.77;0.68;;;;;;;17.05;74.25;100131.66;5074611;28;20040;-64
2023/09/28 06:32:39;;;;;;;0.88;0.82;;;;;;;17.20;73.93;100133.09;5071492;28;20052;-64
2023/09/28 06:35:10;;;;;;;2.90;1.27;;;;;;;17.30;73.55;100135.44;5074034;28;20049;-63
2023/09/28 06:37:39;;;;;;;1.30;1.20;;;;;;;17.44;73.31;100140.31;5073768;28;20368;-63
2023/09/28 06:40:09;;;;;;;2.50;1.63;;;;;;;17.49;72.88;100141.06;5073672;28;20372;-64
2023/09/28 06:42:39;;;;;;;1.30;1.20;;;;;;;17.55;72.82;100135.81;5073549;28;20405;-63
2023/09/28 06:45:12;;;;;;;1.73;0.77;;;;;;;17.61;72.53;100143.41;5073508;28;20053;-63
2023/09/28 06:47:41;;;;;;;2.00;1.80;;;;;;;17.67;72.28;100135.53;5073691;28;20400;-63
2023/09/28 06:50:29;;;;;;;3.20;1.70;;;;;;;17.82;71.89;100139.50;5073161;28;20059;-63
2023/09/28 06:52:58;;;;;;;1.67;1.33;;;;;;;17.88;71.59;100140.22;5073917;28;20041;-62
2023/09/28 06:55:27;;;;;;;1.75;0.90;;;;;;;17.95;71.17;100138.31;5079516;28;20071;-62
2023/09/28 06:57:58;;;;;;;2.03;1.23;;;;;;;18.01;70.87;100143.34;5082918;28;20040;-63
2023/09/28 07:00:29;;;;;;;1.13;0.75;;;;;;;18.10;70.57;100135.38;5079089;28;20042;-62
2023/09/28 07:02:58;;;;;;;0.82;0.82;;;;;;;18.21;70.40;100148.88;5079161;28;20047;-62
2023/09/28 07:05:27;;;;;;;0.98;0.90;;;;;;;18.31;70.24;100150.38;5076559;28;20040;-62
2023/09/28 07:07:56;;;;;;;2.50;2.05;;;;;;;18.39;70.06;100143.28;5078647;28;20082;-62
2023/09/28 07:10:25;;;;;;;0.70;0.65;;;;;;;18.52;69.80;100152.44;5080196;28;20071;-63
2023/09/28 07:12:54;;;;;;;2.75;1.35;;;;;;;18.62;69.70;100146.16;5079808;28;20041;-62
2023/09/28 07:15:24;;;;;;;0.93;0.77;;;;;;;18.74;69.55;100143.25;5078881;28;20040;-62
2023/09/28 07:17:53;;;;;;;1.38;1.27;;;;;;;18.85;69.58;100148.16;5079957;28;20045;-62
2023/09/28 07:20:22;;;;;;;0.60;0.60;;;;;;;19.00;70.18;100154.66;5079144;28;20041;-63
2023/09/28 07:22:51;;;;;;;0.95;0.88;;;;;;;19.17;70.06;100155.84;5079517;28;20040;-63
2023/09/28 07:25:20;;;;;;;1.35;1.25;;;;;;;19.33;70.07;100156.28;5078559;28;20051;-64
2023/09/28 07:27:50;;;;;;;1.50;1.33;;;;;;;19.45;69.90;100161.16;5059617;28;20048;-63
2023/09/28 07:30:20;;;;;;;1.20;1.10;;;;;;;19.57;69.01;100157.34;5059876;28;20504;-63
2023/09/28 07:32:51;;;;;;;3.72;2.17;;;;;;;19.68;68.02;100163.88;5059610;28;20048;-63
2023/09/28 07:35:20;;;;;;;2.08;0.93;;;;;;;19.75;67.49;100160.22;5060241;28;20048;-64
2023/09/28 07:37:50;;;;;;;3.78;1.70;;;;;;;19.78;66.96;100154.94;5079765;28;20111;-64
2023/09/28 07:40:24;;;;;;;1.27;0.98;;;;;;;19.83;66.57;100153.06;5079405;28;20041;-64
2023/09/28 07:43:14;;;;;;;0.63;0.60;;;;;;;20.00;66.47;100161.19;5079299;28;20063;-64
2023/09/28 07:45:44;;;;;;;1.42;1.10;;;;;;;20.12;66.37;100164.25;5078717;28;20074;-64
2023/09/28 07:48:15;;;;;;;0.63;0.63;;;;;;;20.26;66.49;100156.91;5079802;28;20111;-64
2023/09/28 07:50:44;;;;;;;1.42;1.27;;;;;;;20.38;66.65;100159.97;5079752;28;20048;-64
2023/09/28 07:53:13;;;;;;;1.17;1.08;;;;;;;20.51;66.44;100155.22;5079398;28;20500;-64
2023/09/28 07:55:42;;;;;;;0.93;0.90;;;;;;;20.61;65.52;100159.22;5079088;28;20044;-64
2023/09/28 07:58:11;;;;;;;0.70;0.70;;;;;;;20.72;64.97;100157.09;5079281;28;20492;-64
2023/09/28 08:00:47;;;;;;;1.35;1.05;;;;;;;20.80;64.97;100155.09;5079492;28;20504;-64
2023/09/28 08:03:17;;;;;;;0.50;0.50;;;;;;;20.86;64.61;100160.06;5082455;28;20131;-64
2023/09/28 08:05:46;;;;;;;1.38;1.10;;;;;;;20.88;64.05;100166.03;5081204;28;20305;-63
2023/09/28 08:08:15;;;;;;;5.77;3.00;;;;;;;20.94;63.34;100163.22;5075997;28;20040;-63
2023/09/28 08:10:47;;;;;;;2.20;1.73;;;;;;;21.00;62.92;100154.38;5075850;28;20037;-64
2023/09/28 08:13:17;;;;;;;1.00;0.80;;;;;;;21.08;62.16;100166.22;5075268;28;20041;-64
2023/09/28 08:15:46;;;;;;;1.08;1.00;;;;;;;21.15;62.26;100156.44;5075968;28;20036;-64
2023/09/28 08:18:15;;;;;;;2.33;1.35;;;;;;;21.25;61.85;100163.88;5076024;28;20135;-64
2023/09/28 08:20:46;;;;;;;2.05;0.70;;;;;;;21.43;61.75;100164.09;5076039;28;20047;-64
2023/09/28 08:23:33;;;;;;;1.98;1.50;;;;;;;21.53;61.76;100162.81;5076143;28;20036;-64
2023/09/28 08:26:02;;;;;;;4.07;1.55;;;;;;;21.65;61.55;100162.34;5074930;28;20135;-64
2023/09/28 08:28:32;;;;;;;1.80;1.13;;;;;;;21.80;61.73;100161.78;5075762;28;20052;-64
2023/09/28 08:31:04;;;;;;;12.65;2.53;;;;;;;22.01;62.24;100171.38;5076034;28;20127;-64
2023/09/28 08:33:33;;;;;;;0.65;0.65;;;;;;;22.15;62.45;100163.84;5075477;28;20549;-65
2023/09/28 08:36:07;;;;;;;2.97;1.00;;;;;;;22.32;61.59;100166.63;5076334;28;20519;-64
2023/09/28 08:38:38;;;;;;;1.20;1.00;;;;;;;22.47;60.84;100165.16;5075611;28;20641;-64
2023/09/28 08:41:10;;;;;;;1.27;1.17;;;;;;;22.52;59.75;100171.88;5075823;28;20063;-64
2023/09/28 08:43:44;;;;;;;0.70;0.70;;;;;;;22.53;58.78;100170.94;5074537;28;20301;-64
2023/09/28 08:46:15;;;;;;;1.42;1.23;;;;;;;22.51;58.07;100162.34;5077999;28;20041;-64
2023/09/28 08:48:46;;;;;;;0.90;0.90;;;;;;;22.66;57.81;100156.53;5069859;28;20051;-64
2023/09/28 08:51:18;;;;;;;1.15;1.05;;;;;;;22.84;57.27;100164.47;5075410;28;20052;-64
2023/09/28 08:53:50;;;;;;;1.30;1.05;;;;;;;22.90;56.39;100165.06;5075360;28;20063;-64
2023/09/28 08:56:19;;;;;;;1.42;1.30;;;;;;;22.98;56.02;100162.13;5074353;28;20044;-65
2023/09/28 08:58:50;;;;;;;6.88;1.17;;;;;;;23.09;55.88;100159.88;5074779;28;20052;-64
2023/09/28 09:01:20;;;;;;;1.17;1.00;;;;;;;23.18;55.82;100165.53;5075313;28;20060;-64
2023/09/28 09:03:50;;;;;;;0.65;0.65;;;;;;;23.22;55.81;100155.84;5073910;28;20059;-64
2023/09/28 09:06:22;;;;;;;1.23;1.13;;;;;;;23.39;56.10;100158.56;5074527;28;20056;-66
2023/09/28 09:08:55;;;;;;;1.05;1.02;;;;;;;23.52;55.17;100164.88;5055270;28;20057;-64
2023/09/28 09:11:25;;;;;;;1.33;1.23;;;;;;;23.64;55.30;100156.50;5055014;28;20051;-64
2023/09/28 09:13:55;;;;;;;0.50;0.50;;;;;;;23.74;55.87;100162.97;5055050;28;20052;-64
2023/09/28 09:16:28;;;;;;;1.10;0.93;;;;;;;23.84;55.40;100153.81;5054819;28;20068;-65
2023/09/28 09:18:58;;;;;;;6.63;2.90;;;;;;;23.98;55.37;100158.38;5074836;28;20094;-64
2023/09/28 09:21:40;;;;;;;0.77;0.77;;;;;;;24.08;55.74;100157.03;5077972;28;20372;-64
2023/09/28 09:24:11;;;;;;;0.80;0.80;;;;;;;24.18;55.14;100154.84;5074085;28;20040;-64
2023/09/28 09:26:42;;;;;;;1.67;1.45;;;;;;;24.24;54.98;100142.31;5074576;28;20048;-64
2023/09/28 09:29:13;;;;;;;1.45;1.35;;;;;;;24.31;55.11;100135.03;5074672;28;20045;-65
2023/09/28 09:31:44;;;;;;;1.23;1.13;;;;;;;24.40;53.40;100137.19;5074434;28;20132;-65
2023/09/28 09:34:17;;;;;;;0.80;0.80;;;;;;;24.51;52.42;100145.34;5073718;28;20045;-64
2023/09/28 09:36:53;;;;;;;1.58;1.25;;;;;;;24.63;51.85;100142.09;5074486;28;20496;-64
2023/09/28 09:39:23;;;;;;;2.08;1.02;;;;;;;24.77;52.62;100144.03;5074403;28;20037;-64
2023/09/28 09:41:54;;;;;;;1.45;1.35;;;;;;;24.82;51.79;100139.41;5074379;28;20068;-64
2023/09/28 09:44:24;;;;;;;1.63;1.10;;;;;;;24.88;51.48;100139.13;5073707;28;20504;-64
2023/09/28 09:46:55;;;;;;;0.60;0.60;;;;;;;25.00;51.41;100141.91;5073875;28;20037;-64
2023/09/28 09:49:25;;;;;;;1.85;0.73;;;;;;;25.06;50.68;100133.75;5054236;28;20076;-64
2023/09/28 09:52:00;;;;;;;0.88;0.80;;;;;;;25.14;49.91;100139.44;5054739;28;20131;-64
2023/09/28 09:54:34;;;;;;;1.33;1.02;;;;;;;25.24;49.22;100145.03;5063476;28;20113;-64
2023/09/28 09:57:06;;;;;;;0.82;0.82;;;;;;;25.40;49.00;100137.19;5074085;28;20477;-65
2023/09/28 09:59:37;;;;;;;3.50;1.85;;;;;;;25.46;48.43;100144.75;5074081;28;20048;-64
2023/09/28 10:02:10;;;;;;;1.25;1.15;;;;;;;25.58;48.20;100142.28;5074033;28;20056;-64
2023/09/28 10:04:39;;;;;;;1.27;1.08;;;;;;;25.66;47.94;100141.88;5072308;28;20423;-64
2023/09/28 10:07:12;;;;;;;4.25;1.48;;;;;;;25.76;48.14;100140.44;5074126;28;20110;-64
2023/09/28 10:09:42;;;;;;;0.88;0.88;;;;;;;25.87;47.96;100141.50;5073842;28;20044;-64
2023/09/28 10:12:12;;;;;;;1.27;1.13;;;;;;;25.88;47.32;100143.22;5073830;28;20407;-66
2023/09/28 10:14:41;;;;;;;0.52;0.50;;;;;;;25.84;47.22;100146.91;5073171;28;20044;-66
2023/09/28 10:17:11;;;;;;;0.75;0.75;;;;;;;25.96;47.21;100140.16;5075186;28;20377;-64
2023/09/28 10:19:41;;;;;;;0.73;0.73;;;;;;;26.04;47.45;100143.19;5073745;28;20056;-65
2023/09/28 10:22:13;;;;;;;1.27;0.95;;;;;;;26.05;46.57;100142.25;5073114;28;20048;-65
2023/09/28 10:24:44;;;;;;;1.38;1.08;;;;;;;26.09;46.73;100135.91;5075394;28;20036;-66
2023/09/28 10:27:13;;;;;;;1.30;1.02;;;;;;;26.10;47.41;100142.00;5054000;28;20053;-65
2023/09/28 10:29:42;;;;;;;1.08;1.00;;;;;;;26.08;46.52;100142.09;5061430;28;20519;-64
2023/09/28 10:32:27;;;;;;;0.75;0.68;;;;;;;26.12;46.97;100134.94;5072424;28;20136;-69
2023/09/28 10:35:26;;;;;;;0.60;0.60;;;;;;;26.13;47.04;100137.44;5072151;28;20090;-64
2023/09/28 10:38:16;;;;;;;1.58;1.08;;;;;;;26.13;47.03;100140.06;5074561;28;20079;-65
2023/09/28 10:40:49;;;;;;;0.95;0.80;;;;;;;26.21;46.03;100140.47;5073467;28;20040;-65
2023/09/28 10:43:31;;;;;;;3.55;1.33;;;;;;;26.26;46.62;100135.81;5072378;28;20056;-64
2023/09/28 10:46:03;;;;;;;1.05;0.95;;;;;;;26.31;45.92;100136.41;5073368;28;20095;-64
2023/09/28 10:48:44;;;;;;;1.63;1.23;;;;;;;26.40;45.69;100130.63;5072628;28;20041;-64
2023/09/28 10:51:15;;;;;;;1.52;1.10;;;;;;;26.50;46.04;100133.53;5073689;28;20430;-64
2023/09/28 10:53:45;;;;;;;1.20;1.10;;;;;;;26.58;45.40;100128.72;5073364;28;20045;-64
2023/09/28 10:56:15;;;;;;;1.40;1.15;;;;;;;26.65;45.76;100124.78;5073337;28;20045;-64
2023/09/28 10:58:46;;;;;;;3.70;1.73;;;;;;;26.78;46.14;100130.19;5073110;28;20051;-64
2023/09/28 11:01:15;;;;;;;0.88;0.82;;;;;;;26.80;46.02;100133.53;5073210;28;20040;-64
2023/09/28 11:03:46;;;;;;;0.82;0.80;;;;;;;26.91;45.73;100136.34;5073205;28;20051;-65
2023/09/28 11:06:15;;;;;;;0.70;0.70;;;;;;;26.99;45.12;100124.47;5073040;28;20404;-65
2023/09/28 11:08:45;;;;;;;0.60;0.60;;;;;;;26.93;45.23;100124.00;5070341;28;20037;-65
2023/09/28 11:11:17;;;;;;;0.98;0.90;;;;;;;26.87;44.21;100114.75;5072241;28;20047;-65
2023/09/28 11:13:46;;;;;;;1.25;1.08;;;;;;;26.95;43.44;100116.88;5073492;28;20546;-64
2023/09/28 11:16:18;;;;;;;1.40;1.27;;;;;;;27.03;44.37;100114.63;5073368;28;20110;-64
2023/09/28 11:18:47;;;;;;;2.15;0.90;;;;;;;27.23;44.74;100115.06;5072279;28;20045;-64
2023/09/28 11:21:19;;;;;;;1.58;1.35;;;;;;;27.25;44.38;100117.63;5073080;28;20044;-64
2023/09/28 11:23:48;;;;;;;0.65;0.65;;;;;;;27.36;44.01;100123.03;5073721;28;20068;-66
2023/09/28 11:26:19;;;;;;;0.77;0.77;;;;;;;27.51;43.84;100116.88;5072546;28;20049;-65
2023/09/28 11:28:50;;;;;;;1.10;0.80;;;;;;;27.66;44.03;100113.28;5073303;28;20518;-65
2023/09/28 11:31:20;;;;;;;0.65;0.65;;;;;;;27.70;42.54;100117.38;5073359;28;20113;-64
2023/09/28 11:33:49;;;;;;;3.60;0.88;;;;;;;27.69;41.96;100114.88;5072977;28;20051;-65
2023/09/28 11:36:20;;;;;;;1.15;0.98;;;;;;;27.70;41.62;100121.78;5072258;28;20404;-66
2023/09/28 11:38:52;;;;;;;2.15;1.23;;;;;;;27.59;41.10;100113.75;5072828;28;20044;-65
2023/09/28 11:41:24;;;;;;;1.38;1.10;;;;;;;27.60;40.61;100118.91;5075812;28;20606;-64
2023/09/28 11:43:56;;;;;;;0.95;0.85;;;;;;;27.70;40.83;100117.38;5076442;28;20504;-66